x

Ilm3 - 27 Miles Se Of Wrightsville Beach, Nc (41037) Weather Station

10:08 - Tue 17th Jan 2017 All times are EST. -5 hours from GMT.

  • Wind
    16mph, 22mph gusts
  • Sea Temp 69°f
  • Ar Temp 69°f
  • Sea Pressure 1020.1mb
  • Ilm3 - 27 Miles Se Of Wrightsville Beach, Nc
  • Ilm3 - 27 Miles Se Of Wrightsville Beach, Nc

More Historic Weather Station data

Upgrade to MSW Pro to gain access to the past 30 days of data for over 8000 Wavebouys and Weather Stations around the globe.

Join Pro

Comparision Forecast

View Surf forecast
   
Ter 01/17 10:08 16 22 mph 1020.1mb 69f 69f
9:08 18 25 mph 1020.8mb 69f 69f
8:08 13 18 mph 1021mb 69f 68f
7:08 13 20 mph 1021.2mb 69f 68f
6:08 13 20 mph 1021.7mb 69f 67f
5:08 16 22 mph 1021.6mb 69f 67f
4:08 13 18 mph 1021.2mb 70f 67f
3:08 13 20 mph 1021.5mb 70f 68f
2:08 13 18 mph 1021.8mb 69f 68f
1:08 13 20 mph 1022.2mb 69f 69f
12:08 13 18 mph 1023mb 69f 70f
11:08 4 7 mph 1024mb 69f 70f
10:08 4 7 mph 1024.6mb 69f 68f
9:08 4 9 mph 1024.4mb 69f 66f
8:08 4 9 mph 1024.4mb 68f 65f
7:08 4 9 mph 1024mb 68f 65f
6:08 9 11 mph 1023.7mb 68f 64f
5:08 7 11 mph 1023.8mb 68f 63f
4:08 7 11 mph 1024.1mb 68f 62f
3:08 7 11 mph 1024.5mb 68f 62f
2:08 9 13 mph 1024.5mb 68f 61f
1:08 7 11 mph 1025mb 68f 61f
12:08 7 11 mph 1025.8mb 68f 60f
Seg 01/16 11:08 9 16 mph 1026.3mb 68f 60f
10:08 13 20 mph 1026.3mb 68f 59f
9:08 13 20 mph 1026.8mb 68f 59f
8:08 13 18 mph 1026.7mb 68f 60f
7:08 16 20 mph 1027mb 68f 60f
6:08 16 20 mph 1027.6mb 68f 60f
5:08 16 22 mph 1027.2mb 69f 59f
4:08 16 22 mph 1027.2mb 69f 58f
3:08 16 22 mph 1027mb 69f 58f
2:08 16 22 mph 1027mb 69f 58f
1:08 16 25 mph 1027.3mb 69f 57f
12:08 18 25 mph 1028.2mb 70f 57f
11:08 18 25 mph 1028.7mb 70f 58f
10:08 18 25 mph 1029.2mb 70f 58f
9:08 18 27 mph 1028.3mb 70f 57f
8:08 20 27 mph 1027.7mb 70f 56f
7:08 20 27 mph 1027.3mb 70f 57f
6:08 20 27 mph 1027.1mb 70f 56f
5:08 20 27 mph 1026.7mb 70f 56f
4:08 18 27 mph 1026.3mb 70f 56f
3:08 18 27 mph 1026.3mb 70f 57f
2:08 18 25 mph 1026.2mb 70f 58f
1:08 18 27 mph 1026mb 70f 58f
12:08 18 25 mph 1026.2mb 71f 58f
Dom 01/15 11:08 18 25 mph 1026.3mb 71f 58f
10:08 18 25 mph 1026.5mb 71f 58f
9:08 20 27 mph 1026.7mb 71f 58f
8:08 20 27 mph 1026.2mb 71f 58f
7:08 20 27 mph 1026.3mb 71f 58f
6:08 18 25 mph 1026mb 71f 58f
5:08 18 25 mph 1025.9mb 70f 58f
4:08 18 27 mph 1025.4mb 71f 58f
3:08 13 20 mph 1025.1mb 71f 59f
2:08 9 13 mph 1024.9mb 71f 60f
1:08 7 11 mph 1025.1mb 71f 61f
12:08 2 7 mph 1025.7mb 71f 60f
11:08 7 13 mph 1026.9mb 71f 60f
10:08 9 13 mph 1027.1mb 71f 60f
9:08 9 13 mph 1026.6mb 71f 60f
8:08 9 13 mph 1026.1mb 71f 60f
7:08 9 13 mph 1025.7mb 71f 59f
6:08 9 13 mph 1025.4mb 71f 59f
5:08 11 16 mph 1025.3mb 70f 60f
4:08 9 16 mph 1025.2mb 70f 60f
3:08 9 13 mph 1025.5mb 70f 59f
2:08 7 11 mph 1025.7mb 70f 58f
1:08 2 7 mph 1026.2mb 70f 57f
12:08 7 11 mph 1027.1mb 71f 57f
Sáb 01/14 11:08 7 11 mph 1027.7mb 71f 57f
10:08 7 13 mph 1028mb 71f 57f
9:08 11 13 mph 1028.2mb 70f 58f
8:08 7 11 mph 1028.6mb 70f 59f
7:08 9 16 mph 1028.6mb 69f 60f
6:08 11 16 mph 1028.7mb 69f 60f
5:08 11 16 mph 1028.6mb 69f 60f
4:08 11 18 mph 1028.8mb 69f 60f
3:08 11 16 mph 1029mb 69f 58f
2:08 11 18 mph 1029.1mb 69f 58f
1:08 13 20 mph 1030.1mb 69f 57f
12:08 16 22 mph 1031.1mb 69f 57f
11:08 18 25 mph 1031.9mb 69f 58f
10:08 20 29 mph 1032.5mb 69f 57f
9:08 22 29 mph 1032.2mb 69f 57f
8:08 22 29 mph 1031.6mb 69f 58f
7:08 20 29 mph 1031.3mb 68f 58f
6:08 22 29 mph 1031.2mb 68f 57f
5:08 22 29 mph 1031.3mb 68f 58f